sensor_id;sensor_type;location;lat;lon;timestamp;temperature;humidity
64939;DHT22;51453;47.738;7.420;2024-01-27T00:00:19;1.60;99.90
64939;DHT22;51453;47.738;7.420;2024-01-27T00:02:45;1.60;99.90
64939;DHT22;51453;47.738;7.420;2024-01-27T00:05:10;1.60;99.90
64939;DHT22;51453;47.738;7.420;2024-01-27T00:07:36;1.60;99.90
64939;DHT22;51453;47.738;7.420;2024-01-27T00:10:02;1.70;99.90
64939;DHT22;51453;47.738;7.420;2024-01-27T00:12:28;1.80;99.90
64939;DHT22;51453;47.738;7.420;2024-01-27T00:14:54;1.80;99.90
64939;DHT22;51453;47.738;7.420;2024-01-27T00:17:20;1.80;99.90
64939;DHT22;51453;47.738;7.420;2024-01-27T00:19:53;1.70;99.90
64939;DHT22;51453;47.738;7.420;2024-01-27T00:22:20;1.70;99.90
64939;DHT22;51453;47.738;7.420;2024-01-27T00:24:46;1.60;99.90
64939;DHT22;51453;47.738;7.420;2024-01-27T00:27:12;1.60;99.90
64939;DHT22;51453;47.738;7.420;2024-01-27T00:29:38;1.60;99.90
64939;DHT22;51453;47.738;7.420;2024-01-27T00:32:04;1.60;99.90
64939;DHT22;51453;47.738;7.420;2024-01-27T00:34:30;1.80;99.90
64939;DHT22;51453;47.738;7.420;2024-01-27T00:36:56;1.70;99.90
64939;DHT22;51453;47.738;7.420;2024-01-27T00:39:22;1.80;99.90
64939;DHT22;51453;47.738;7.420;2024-01-27T00:41:48;1.90;99.90
64939;DHT22;51453;47.738;7.420;2024-01-27T00:44:14;1.80;99.90
64939;DHT22;51453;47.738;7.420;2024-01-27T00:46:40;1.70;99.90
64939;DHT22;51453;47.738;7.420;2024-01-27T00:49:06;1.80;99.90
64939;DHT22;51453;47.738;7.420;2024-01-27T00:51:32;1.80;99.90
64939;DHT22;51453;47.738;7.420;2024-01-27T00:53:58;1.80;99.90
64939;DHT22;51453;47.738;7.420;2024-01-27T00:56:24;1.80;99.90
64939;DHT22;51453;47.738;7.420;2024-01-27T00:58:50;1.80;99.90
64939;DHT22;51453;47.738;7.420;2024-01-27T01:01:16;1.70;99.90
64939;DHT22;51453;47.738;7.420;2024-01-27T01:03:41;1.60;99.90
64939;DHT22;51453;47.738;7.420;2024-01-27T01:06:07;1.40;99.90
64939;DHT22;51453;47.738;7.420;2024-01-27T01:08:33;1.40;99.90
64939;DHT22;51453;47.738;7.420;2024-01-27T01:10:59;1.40;99.90
64939;DHT22;51453;47.738;7.420;2024-01-27T01:13:25;1.40;99.90
64939;DHT22;51453;47.738;7.420;2024-01-27T01:15:51;1.30;99.90
64939;DHT22;51453;47.738;7.420;2024-01-27T01:18:17;1.30;99.90
64939;DHT22;51453;47.738;7.420;2024-01-27T01:20:43;1.40;99.90
64939;DHT22;51453;47.738;7.420;2024-01-27T01:23:09;1.40;99.90
64939;DHT22;51453;47.738;7.420;2024-01-27T01:25:35;1.40;99.90
64939;DHT22;51453;47.738;7.420;2024-01-27T01:28:01;1.30;99.90
64939;DHT22;51453;47.738;7.420;2024-01-27T01:30:27;1.30;99.90
64939;DHT22;51453;47.738;7.420;2024-01-27T01:32:53;1.20;99.90
64939;DHT22;51453;47.738;7.420;2024-01-27T01:35:18;1.20;99.90
64939;DHT22;51453;47.738;7.420;2024-01-27T01:37:44;1.10;99.90
64939;DHT22;51453;47.738;7.420;2024-01-27T01:40:10;1.10;99.90
64939;DHT22;51453;47.738;7.420;2024-01-27T01:42:38;1.00;99.90
64939;DHT22;51453;47.738;7.420;2024-01-27T01:45:04;0.80;99.90
64939;DHT22;51453;47.738;7.420;2024-01-27T01:47:30;0.70;99.90
64939;DHT22;51453;47.738;7.420;2024-01-27T01:49:56;0.80;99.90
64939;DHT22;51453;47.738;7.420;2024-01-27T01:52:22;0.70;99.90
64939;DHT22;51453;47.738;7.420;2024-01-27T01:54:49;0.60;99.90
64939;DHT22;51453;47.738;7.420;2024-01-27T01:57:15;0.60;99.90
64939;DHT22;51453;47.738;7.420;2024-01-27T01:59:42;0.70;99.90
64939;DHT22;51453;47.738;7.420;2024-01-27T02:02:09;0.70;99.90
64939;DHT22;51453;47.738;7.420;2024-01-27T02:04:45;0.70;99.90
64939;DHT22;51453;47.738;7.420;2024-01-27T02:07:14;0.80;99.90
64939;DHT22;51453;47.738;7.420;2024-01-27T02:09:40;0.90;99.90
64939;DHT22;51453;47.738;7.420;2024-01-27T02:12:07;1.00;99.90
64939;DHT22;51453;47.738;7.420;2024-01-27T02:14:33;1.10;99.90
64939;DHT22;51453;47.738;7.420;2024-01-27T02:16:59;1.10;99.90
64939;DHT22;51453;47.738;7.420;2024-01-27T02:19:25;1.20;99.90
64939;DHT22;51453;47.738;7.420;2024-01-27T02:21:50;1.30;99.90
64939;DHT22;51453;47.738;7.420;2024-01-27T02:24:16;1.40;99.90
64939;DHT22;51453;47.738;7.420;2024-01-27T02:26:43;1.50;99.90
64939;DHT22;51453;47.738;7.420;2024-01-27T02:29:09;1.70;99.90
64939;DHT22;51453;47.738;7.420;2024-01-27T02:31:35;1.80;99.90
64939;DHT22;51453;47.738;7.420;2024-01-27T02:34:01;1.80;99.90
64939;DHT22;51453;47.738;7.420;2024-01-27T02:36:27;1.80;99.90
64939;DHT22;51453;47.738;7.420;2024-01-27T02:38:53;1.80;99.90
64939;DHT22;51453;47.738;7.420;2024-01-27T02:41:19;1.80;99.90
64939;DHT22;51453;47.738;7.420;2024-01-27T02:43:45;2.00;99.90
64939;DHT22;51453;47.738;7.420;2024-01-27T02:46:12;2.00;99.90
64939;DHT22;51453;47.738;7.420;2024-01-27T02:48:45;2.00;99.90
64939;DHT22;51453;47.738;7.420;2024-01-27T02:51:12;1.90;99.90
64939;DHT22;51453;47.738;7.420;2024-01-27T02:53:38;1.90;99.90
64939;DHT22;51453;47.738;7.420;2024-01-27T02:56:06;1.90;99.90
64939;DHT22;51453;47.738;7.420;2024-01-27T02:58:33;1.90;99.90
64939;DHT22;51453;47.738;7.420;2024-01-27T03:00:59;1.90;99.90
64939;DHT22;51453;47.738;7.420;2024-01-27T03:03:24;1.90;99.90
64939;DHT22;51453;47.738;7.420;2024-01-27T03:05:51;1.80;99.90
64939;DHT22;51453;47.738;7.420;2024-01-27T03:08:16;1.80;99.90
64939;DHT22;51453;47.738;7.420;2024-01-27T03:10:42;1.80;99.90
64939;DHT22;51453;47.738;7.420;2024-01-27T03:13:09;1.90;99.90
64939;DHT22;51453;47.738;7.420;2024-01-27T03:15:35;2.00;99.90
64939;DHT22;51453;47.738;7.420;2024-01-27T03:18:03;2.00;99.90
64939;DHT22;51453;47.738;7.420;2024-01-27T03:20:31;2.00;99.90
64939;DHT22;51453;47.738;7.420;2024-01-27T03:22:57;2.00;99.90
64939;DHT22;51453;47.738;7.420;2024-01-27T03:25:22;1.80;99.90
64939;DHT22;51453;47.738;7.420;2024-01-27T03:27:51;1.80;99.90
64939;DHT22;51453;47.738;7.420;2024-01-27T03:30:17;1.90;99.90
64939;DHT22;51453;47.738;7.420;2024-01-27T03:32:43;1.90;99.90
64939;DHT22;51453;47.738;7.420;2024-01-27T03:35:08;1.90;99.90
64939;DHT22;51453;47.738;7.420;2024-01-27T03:37:34;1.90;99.90
64939;DHT22;51453;47.738;7.420;2024-01-27T03:40:01;1.80;99.90
64939;DHT22;51453;47.738;7.420;2024-01-27T03:42:27;1.90;99.90
64939;DHT22;51453;47.738;7.420;2024-01-27T03:44:53;1.90;99.90
64939;DHT22;51453;47.738;7.420;2024-01-27T03:47:20;1.90;99.90
64939;DHT22;51453;47.738;7.420;2024-01-27T03:49:46;1.90;99.90
64939;DHT22;51453;47.738;7.420;2024-01-27T03:52:12;1.90;99.90
64939;DHT22;51453;47.738;7.420;2024-01-27T03:54:38;1.90;99.90
64939;DHT22;51453;47.738;7.420;2024-01-27T03:57:04;1.90;99.90
64939;DHT22;51453;47.738;7.420;2024-01-27T03:59:30;1.90;99.90
64939;DHT22;51453;47.738;7.420;2024-01-27T04:01:56;1.70;99.90
64939;DHT22;51453;47.738;7.420;2024-01-27T04:04:22;1.70;99.90
64939;DHT22;51453;47.738;7.420;2024-01-27T04:06:48;1.70;99.90
64939;DHT22;51453;47.738;7.420;2024-01-27T04:09:13;1.70;99.90
64939;DHT22;51453;47.738;7.420;2024-01-27T04:11:39;1.70;99.90
64939;DHT22;51453;47.738;7.420;2024-01-27T04:14:06;1.70;99.90
64939;DHT22;51453;47.738;7.420;2024-01-27T04:16:31;1.70;99.90
64939;DHT22;51453;47.738;7.420;2024-01-27T04:18:58;1.70;99.90
64939;DHT22;51453;47.738;7.420;2024-01-27T04:21:23;1.70;99.90
64939;DHT22;51453;47.738;7.420;2024-01-27T04:23:49;1.60;99.90
64939;DHT22;51453;47.738;7.420;2024-01-27T04:26:17;1.50;99.90
64939;DHT22;51453;47.738;7.420;2024-01-27T04:28:46;1.50;99.90
64939;DHT22;51453;47.738;7.420;2024-01-27T04:31:12;1.50;99.90
64939;DHT22;51453;47.738;7.420;2024-01-27T04:33:38;1.40;99.90
64939;DHT22;51453;47.738;7.420;2024-01-27T04:36:04;1.40;99.90
64939;DHT22;51453;47.738;7.420;2024-01-27T04:38:32;1.30;99.90
64939;DHT22;51453;47.738;7.420;2024-01-27T04:40:58;1.30;99.90
64939;DHT22;51453;47.738;7.420;2024-01-27T04:43:23;1.20;99.90
64939;DHT22;51453;47.738;7.420;2024-01-27T04:45:50;1.20;99.90
64939;DHT22;51453;47.738;7.420;2024-01-27T04:48:16;1.20;99.90
64939;DHT22;51453;47.738;7.420;2024-01-27T04:50:43;1.10;99.90
64939;DHT22;51453;47.738;7.420;2024-01-27T04:53:09;1.00;99.90
64939;DHT22;51453;47.738;7.420;2024-01-27T04:55:35;1.00;99.90
64939;DHT22;51453;47.738;7.420;2024-01-27T04:58:01;0.90;99.90
64939;DHT22;51453;47.738;7.420;2024-01-27T05:00:27;0.90;99.90
64939;DHT22;51453;47.738;7.420;2024-01-27T05:02:54;0.90;99.90
64939;DHT22;51453;47.738;7.420;2024-01-27T05:05:20;0.90;99.90
64939;DHT22;51453;47.738;7.420;2024-01-27T05:07:47;0.90;99.90
64939;DHT22;51453;47.738;7.420;2024-01-27T05:10:15;0.80;99.90
64939;DHT22;51453;47.738;7.420;2024-01-27T05:12:42;0.70;99.90
64939;DHT22;51453;47.738;7.420;2024-01-27T05:15:10;0.60;99.90
64939;DHT22;51453;47.738;7.420;2024-01-27T05:17:36;0.50;99.90
64939;DHT22;51453;47.738;7.420;2024-01-27T05:20:02;0.40;99.90
64939;DHT22;51453;47.738;7.420;2024-01-27T05:22:30;0.30;99.90
64939;DHT22;51453;47.738;7.420;2024-01-27T05:24:57;0.30;99.90
64939;DHT22;51453;47.738;7.420;2024-01-27T05:27:23;0.20;99.90
64939;DHT22;51453;47.738;7.420;2024-01-27T05:29:49;0.10;99.90
64939;DHT22;51453;47.738;7.420;2024-01-27T05:32:16;0.10;99.90
64939;DHT22;51453;47.738;7.420;2024-01-27T05:34:41;0.00;99.90
64939;DHT22;51453;47.738;7.420;2024-01-27T05:37:07;-0.10;99.90
64939;DHT22;51453;47.738;7.420;2024-01-27T05:39:33;-0.10;99.90
64939;DHT22;51453;47.738;7.420;2024-01-27T05:41:59;-0.10;99.90
64939;DHT22;51453;47.738;7.420;2024-01-27T05:44:25;-0.10;99.90
64939;DHT22;51453;47.738;7.420;2024-01-27T05:46:51;-0.10;99.90
64939;DHT22;51453;47.738;7.420;2024-01-27T05:49:16;-0.30;99.90
64939;DHT22;51453;47.738;7.420;2024-01-27T05:51:42;-0.20;99.90
64939;DHT22;51453;47.738;7.420;2024-01-27T05:54:09;-0.10;99.90
64939;DHT22;51453;47.738;7.420;2024-01-27T05:56:35;0.00;99.90
64939;DHT22;51453;47.738;7.420;2024-01-27T05:59:02;0.00;99.90
64939;DHT22;51453;47.738;7.420;2024-01-27T06:01:28;-0.10;99.90
64939;DHT22;51453;47.738;7.420;2024-01-27T06:03:54;-0.10;99.90
64939;DHT22;51453;47.738;7.420;2024-01-27T06:06:20;-0.20;99.90
64939;DHT22;51453;47.738;7.420;2024-01-27T06:08:46;-0.30;99.90
64939;DHT22;51453;47.738;7.420;2024-01-27T06:11:11;-0.30;99.90
64939;DHT22;51453;47.738;7.420;2024-01-27T06:13:37;-0.30;99.90
64939;DHT22;51453;47.738;7.420;2024-01-27T06:16:08;-0.40;99.90
64939;DHT22;51453;47.738;7.420;2024-01-27T06:18:37;-0.40;99.90
64939;DHT22;51453;47.738;7.420;2024-01-27T06:21:04;-0.30;99.90
64939;DHT22;51453;47.738;7.420;2024-01-27T06:23:30;-0.30;99.90
64939;DHT22;51453;47.738;7.420;2024-01-27T06:25:56;-0.30;99.90
64939;DHT22;51453;47.738;7.420;2024-01-27T06:28:22;-0.40;99.90
64939;DHT22;51453;47.738;7.420;2024-01-27T06:30:47;-0.50;99.90
64939;DHT22;51453;47.738;7.420;2024-01-27T06:33:13;-0.60;99.90
64939;DHT22;51453;47.738;7.420;2024-01-27T06:35:39;-0.70;99.90
64939;DHT22;51453;47.738;7.420;2024-01-27T06:38:05;-0.70;99.90
64939;DHT22;51453;47.738;7.420;2024-01-27T06:40:30;-0.70;99.90
64939;DHT22;51453;47.738;7.420;2024-01-27T06:42:56;-0.70;99.90
64939;DHT22;51453;47.738;7.420;2024-01-27T06:45:22;-0.70;99.90
64939;DHT22;51453;47.738;7.420;2024-01-27T06:47:48;-0.70;99.90
64939;DHT22;51453;47.738;7.420;2024-01-27T06:50:14;-0.70;99.90
64939;DHT22;51453;47.738;7.420;2024-01-27T06:52:40;-0.70;99.90
64939;DHT22;51453;47.738;7.420;2024-01-27T06:55:06;-0.60;99.90
64939;DHT22;51453;47.738;7.420;2024-01-27T06:57:32;-0.60;99.90
64939;DHT22;51453;47.738;7.420;2024-01-27T06:59:58;-0.60;99.90
64939;DHT22;51453;47.738;7.420;2024-01-27T07:02:28;-0.60;99.90
64939;DHT22;51453;47.738;7.420;2024-01-27T07:04:55;-0.60;99.90
64939;DHT22;51453;47.738;7.420;2024-01-27T07:07:27;-0.60;99.90
64939;DHT22;51453;47.738;7.420;2024-01-27T07:09:55;-0.60;99.90
64939;DHT22;51453;47.738;7.420;2024-01-27T07:12:21;-0.50;99.90
64939;DHT22;51453;47.738;7.420;2024-01-27T07:14:47;-0.50;99.90
64939;DHT22;51453;47.738;7.420;2024-01-27T07:17:13;-0.40;99.90
64939;DHT22;51453;47.738;7.420;2024-01-27T07:19:40;-0.30;99.90
64939;DHT22;51453;47.738;7.420;2024-01-27T07:22:05;-0.40;99.90
64939;DHT22;51453;47.738;7.420;2024-01-27T07:24:32;-0.50;99.90
64939;DHT22;51453;47.738;7.420;2024-01-27T07:27:00;-0.50;99.90
64939;DHT22;51453;47.738;7.420;2024-01-27T07:29:26;-0.50;99.90
64939;DHT22;51453;47.738;7.420;2024-01-27T07:31:53;-0.50;99.90
64939;DHT22;51453;47.738;7.420;2024-01-27T07:34:19;-0.40;99.90
64939;DHT22;51453;47.738;7.420;2024-01-27T07:36:45;-0.40;99.90
64939;DHT22;51453;47.738;7.420;2024-01-27T07:39:13;-0.40;99.90
64939;DHT22;51453;47.738;7.420;2024-01-27T07:41:40;-0.40;99.90
64939;DHT22;51453;47.738;7.420;2024-01-27T07:44:09;-0.40;99.90
64939;DHT22;51453;47.738;7.420;2024-01-27T07:46:36;-0.40;99.90
64939;DHT22;51453;47.738;7.420;2024-01-27T07:49:03;-0.30;99.90
64939;DHT22;51453;47.738;7.420;2024-01-27T07:51:30;-0.30;99.90
64939;DHT22;51453;47.738;7.420;2024-01-27T07:53:56;-0.20;99.90
64939;DHT22;51453;47.738;7.420;2024-01-27T07:56:21;-0.10;99.90
64939;DHT22;51453;47.738;7.420;2024-01-27T07:58:47;-0.10;99.90
64939;DHT22;51453;47.738;7.420;2024-01-27T08:01:17;-0.10;99.90
64939;DHT22;51453;47.738;7.420;2024-01-27T08:07:05;0.10;99.90
64939;DHT22;51453;47.738;7.420;2024-01-27T08:09:36;0.30;99.90
64939;DHT22;51453;47.738;7.420;2024-01-27T08:12:03;0.50;99.90
64939;DHT22;51453;47.738;7.420;2024-01-27T08:14:29;0.70;99.90
64939;DHT22;51453;47.738;7.420;2024-01-27T08:16:59;0.80;99.90
64939;DHT22;51453;47.738;7.420;2024-01-27T08:19:26;0.90;99.90
64939;DHT22;51453;47.738;7.420;2024-01-27T08:21:52;0.80;99.90
64939;DHT22;51453;47.738;7.420;2024-01-27T08:24:17;0.80;99.90
64939;DHT22;51453;47.738;7.420;2024-01-27T08:26:43;0.80;99.90
64939;DHT22;51453;47.738;7.420;2024-01-27T08:32:31;1.00;99.90
64939;DHT22;51453;47.738;7.420;2024-01-27T08:34:58;1.20;99.90
64939;DHT22;51453;47.738;7.420;2024-01-27T08:37:25;1.40;99.90
64939;DHT22;51453;47.738;7.420;2024-01-27T08:39:53;1.50;99.90
64939;DHT22;51453;47.738;7.420;2024-01-27T08:42:20;1.50;99.90
64939;DHT22;51453;47.738;7.420;2024-01-27T08:44:46;1.70;99.90
64939;DHT22;51453;47.738;7.420;2024-01-27T08:47:11;2.00;99.90
64939;DHT22;51453;47.738;7.420;2024-01-27T08:49:37;2.10;99.90
64939;DHT22;51453;47.738;7.420;2024-01-27T08:52:03;2.20;99.90
64939;DHT22;51453;47.738;7.420;2024-01-27T08:54:29;2.20;99.90
64939;DHT22;51453;47.738;7.420;2024-01-27T08:56:56;2.50;99.90
64939;DHT22;51453;47.738;7.420;2024-01-27T08:59:22;2.50;99.90
64939;DHT22;51453;47.738;7.420;2024-01-27T09:01:48;2.20;99.90
64939;DHT22;51453;47.738;7.420;2024-01-27T09:04:14;2.50;99.90
64939;DHT22;51453;47.738;7.420;2024-01-27T09:06:40;2.80;99.90
64939;DHT22;51453;47.738;7.420;2024-01-27T09:09:06;2.90;99.90
64939;DHT22;51453;47.738;7.420;2024-01-27T09:11:33;2.70;99.90
64939;DHT22;51453;47.738;7.420;2024-01-27T09:14:00;2.90;99.90
64939;DHT22;51453;47.738;7.420;2024-01-27T09:16:27;2.90;99.90
64939;DHT22;51453;47.738;7.420;2024-01-27T09:18:52;3.10;99.90
64939;DHT22;51453;47.738;7.420;2024-01-27T09:21:20;2.90;99.90
64939;DHT22;51453;47.738;7.420;2024-01-27T09:23:48;2.80;99.90
64939;DHT22;51453;47.738;7.420;2024-01-27T09:26:15;3.00;99.90
64939;DHT22;51453;47.738;7.420;2024-01-27T09:28:44;2.80;99.90
64939;DHT22;51453;47.738;7.420;2024-01-27T09:31:11;2.70;99.90
64939;DHT22;51453;47.738;7.420;2024-01-27T09:33:37;2.60;99.90
64939;DHT22;51453;47.738;7.420;2024-01-27T09:36:04;2.90;99.90
64939;DHT22;51453;47.738;7.420;2024-01-27T09:38:30;3.30;99.90
64939;DHT22;51453;47.738;7.420;2024-01-27T09:40:56;3.30;99.90
64939;DHT22;51453;47.738;7.420;2024-01-27T09:43:25;3.40;99.90
64939;DHT22;51453;47.738;7.420;2024-01-27T09:45:52;3.40;99.90
64939;DHT22;51453;47.738;7.420;2024-01-27T09:48:19;3.50;99.90
64939;DHT22;51453;47.738;7.420;2024-01-27T09:50:48;3.50;99.90
64939;DHT22;51453;47.738;7.420;2024-01-27T09:53:15;3.50;99.90
64939;DHT22;51453;47.738;7.420;2024-01-27T09:55:44;3.30;99.90
64939;DHT22;51453;47.738;7.420;2024-01-27T09:58:11;3.40;99.90
64939;DHT22;51453;47.738;7.420;2024-01-27T10:00:37;3.20;99.90
64939;DHT22;51453;47.738;7.420;2024-01-27T10:03:06;3.10;99.90
64939;DHT22;51453;47.738;7.420;2024-01-27T10:05:36;3.00;99.90
64939;DHT22;51453;47.738;7.420;2024-01-27T10:08:02;3.00;99.90
64939;DHT22;51453;47.738;7.420;2024-01-27T10:10:32;3.00;99.90
64939;DHT22;51453;47.738;7.420;2024-01-27T10:13:00;3.00;99.90
64939;DHT22;51453;47.738;7.420;2024-01-27T10:15:29;2.90;99.90
64939;DHT22;51453;47.738;7.420;2024-01-27T10:18:08;2.90;99.90
64939;DHT22;51453;47.738;7.420;2024-01-27T10:20:40;3.00;99.90
64939;DHT22;51453;47.738;7.420;2024-01-27T10:23:12;3.10;99.90
64939;DHT22;51453;47.738;7.420;2024-01-27T10:25:39;3.20;99.90
64939;DHT22;51453;47.738;7.420;2024-01-27T10:28:09;3.30;99.90
64939;DHT22;51453;47.738;7.420;2024-01-27T10:30:36;3.30;99.90
64939;DHT22;51453;47.738;7.420;2024-01-27T10:33:03;3.40;99.90
64939;DHT22;51453;47.738;7.420;2024-01-27T10:35:30;3.40;99.90
64939;DHT22;51453;47.738;7.420;2024-01-27T10:37:57;3.30;99.90
64939;DHT22;51453;47.738;7.420;2024-01-27T10:40:23;3.30;99.90
64939;DHT22;51453;47.738;7.420;2024-01-27T10:45:39;3.40;99.90
64939;DHT22;51453;47.738;7.420;2024-01-27T10:48:09;3.40;99.90
64939;DHT22;51453;47.738;7.420;2024-01-27T10:50:39;3.40;99.90
64939;DHT22;51453;47.738;7.420;2024-01-27T10:53:09;3.50;99.90
64939;DHT22;51453;47.738;7.420;2024-01-27T10:55:37;3.50;99.90
64939;DHT22;51453;47.738;7.420;2024-01-27T10:58:04;3.50;99.90
64939;DHT22;51453;47.738;7.420;2024-01-27T11:00:30;3.60;99.90
64939;DHT22;51453;47.738;7.420;2024-01-27T11:02:59;3.70;99.90
64939;DHT22;51453;47.738;7.420;2024-01-27T11:05:27;3.80;99.90
64939;DHT22;51453;47.738;7.420;2024-01-27T11:07:56;3.80;99.90
64939;DHT22;51453;47.738;7.420;2024-01-27T11:10:23;3.90;99.90
64939;DHT22;51453;47.738;7.420;2024-01-27T11:12:50;3.90;99.90
64939;DHT22;51453;47.738;7.420;2024-01-27T11:15:18;3.90;99.90
64939;DHT22;51453;47.738;7.420;2024-01-27T11:17:45;4.00;99.90
64939;DHT22;51453;47.738;7.420;2024-01-27T11:20:13;4.10;99.90
64939;DHT22;51453;47.738;7.420;2024-01-27T11:22:41;4.20;99.90
64939;DHT22;51453;47.738;7.420;2024-01-27T11:27:35;4.20;99.90
64939;DHT22;51453;47.738;7.420;2024-01-27T11:30:04;4.30;99.90
64939;DHT22;51453;47.738;7.420;2024-01-27T11:32:30;4.40;99.90
64939;DHT22;51453;47.738;7.420;2024-01-27T11:34:57;4.40;99.90
64939;DHT22;51453;47.738;7.420;2024-01-27T11:40:47;4.50;99.90
64939;DHT22;51453;47.738;7.420;2024-01-27T11:43:14;4.70;99.90
64939;DHT22;51453;47.738;7.420;2024-01-27T11:45:40;4.80;99.90
64939;DHT22;51453;47.738;7.420;2024-01-27T11:48:06;4.80;99.90
64939;DHT22;51453;47.738;7.420;2024-01-27T11:50:32;5.00;99.90
64939;DHT22;51453;47.738;7.420;2024-01-27T11:52:57;5.00;99.90
64939;DHT22;51453;47.738;7.420;2024-01-27T11:55:23;4.90;99.90
64939;DHT22;51453;47.738;7.420;2024-01-27T11:57:49;4.90;99.90
64939;DHT22;51453;47.738;7.420;2024-01-27T12:00:14;4.90;99.90
64939;DHT22;51453;47.738;7.420;2024-01-27T12:02:40;5.00;99.90
64939;DHT22;51453;47.738;7.420;2024-01-27T12:05:08;5.20;99.90
64939;DHT22;51453;47.738;7.420;2024-01-27T12:07:35;5.30;99.90
64939;DHT22;51453;47.738;7.420;2024-01-27T12:10:01;5.30;99.90
64939;DHT22;51453;47.738;7.420;2024-01-27T12:15:49;5.50;99.90
64939;DHT22;51453;47.738;7.420;2024-01-27T12:18:14;5.50;99.90
64939;DHT22;51453;47.738;7.420;2024-01-27T12:20:40;5.60;99.90
64939;DHT22;51453;47.738;7.420;2024-01-27T12:26:29;5.70;99.90
64939;DHT22;51453;47.738;7.420;2024-01-27T12:28:56;5.80;99.90
64939;DHT22;51453;47.738;7.420;2024-01-27T12:31:24;5.90;99.90
64939;DHT22;51453;47.738;7.420;2024-01-27T12:33:59;6.00;99.90
64939;DHT22;51453;47.738;7.420;2024-01-27T12:36:25;6.10;99.90
64939;DHT22;51453;47.738;7.420;2024-01-27T12:41:20;6.10;99.90
64939;DHT22;51453;47.738;7.420;2024-01-27T12:43:45;6.20;99.90
64939;DHT22;51453;47.738;7.420;2024-01-27T12:46:11;6.20;99.90
64939;DHT22;51453;47.738;7.420;2024-01-27T12:48:38;6.30;99.90
64939;DHT22;51453;47.738;7.420;2024-01-27T12:51:04;6.30;99.90
64939;DHT22;51453;47.738;7.420;2024-01-27T12:53:30;6.40;99.90
64939;DHT22;51453;47.738;7.420;2024-01-27T12:55:56;6.40;99.90
64939;DHT22;51453;47.738;7.420;2024-01-27T12:58:22;6.50;99.90
64939;DHT22;51453;47.738;7.420;2024-01-27T13:00:48;6.60;99.90
64939;DHT22;51453;47.738;7.420;2024-01-27T13:03:14;6.60;99.90
64939;DHT22;51453;47.738;7.420;2024-01-27T13:05:41;6.80;99.90
64939;DHT22;51453;47.738;7.420;2024-01-27T13:08:06;6.80;99.90
64939;DHT22;51453;47.738;7.420;2024-01-27T13:10:33;6.70;99.90
64939;DHT22;51453;47.738;7.420;2024-01-27T13:12:59;6.80;99.90
64939;DHT22;51453;47.738;7.420;2024-01-27T13:15:25;6.80;99.90
64939;DHT22;51453;47.738;7.420;2024-01-27T13:17:51;6.80;99.90
64939;DHT22;51453;47.738;7.420;2024-01-27T13:20:17;6.90;99.90
64939;DHT22;51453;47.738;7.420;2024-01-27T13:22:43;6.90;99.90
64939;DHT22;51453;47.738;7.420;2024-01-27T13:25:10;6.90;99.90
64939;DHT22;51453;47.738;7.420;2024-01-27T13:27:36;7.00;99.90
64939;DHT22;51453;47.738;7.420;2024-01-27T13:30:03;7.10;99.90
64939;DHT22;51453;47.738;7.420;2024-01-27T13:32:28;7.10;99.90
64939;DHT22;51453;47.738;7.420;2024-01-27T13:34:54;7.10;99.90
64939;DHT22;51453;47.738;7.420;2024-01-27T13:37:20;7.20;99.90
64939;DHT22;51453;47.738;7.420;2024-01-27T13:39:46;7.20;99.90
64939;DHT22;51453;47.738;7.420;2024-01-27T13:42:12;7.20;99.90
64939;DHT22;51453;47.738;7.420;2024-01-27T13:44:38;7.20;99.90
64939;DHT22;51453;47.738;7.420;2024-01-27T13:47:05;7.10;99.90
64939;DHT22;51453;47.738;7.420;2024-01-27T13:49:31;7.20;99.90
64939;DHT22;51453;47.738;7.420;2024-01-27T13:51:57;7.20;99.90
64939;DHT22;51453;47.738;7.420;2024-01-27T13:54:24;7.20;99.90
64939;DHT22;51453;47.738;7.420;2024-01-27T13:56:51;7.30;99.90
64939;DHT22;51453;47.738;7.420;2024-01-27T13:59:17;7.40;99.90
64939;DHT22;51453;47.738;7.420;2024-01-27T14:01:43;7.40;99.90
64939;DHT22;51453;47.738;7.420;2024-01-27T14:04:10;7.40;99.90
64939;DHT22;51453;47.738;7.420;2024-01-27T14:06:36;7.40;99.90
64939;DHT22;51453;47.738;7.420;2024-01-27T14:09:02;7.50;99.90
64939;DHT22;51453;47.738;7.420;2024-01-27T14:11:28;7.60;99.90
64939;DHT22;51453;47.738;7.420;2024-01-27T14:13:54;7.70;99.90
64939;DHT22;51453;47.738;7.420;2024-01-27T14:16:20;7.90;99.90
64939;DHT22;51453;47.738;7.420;2024-01-27T14:18:46;7.90;99.90
64939;DHT22;51453;47.738;7.420;2024-01-27T14:21:12;8.00;99.90
64939;DHT22;51453;47.738;7.420;2024-01-27T14:23:38;8.00;99.90
64939;DHT22;51453;47.738;7.420;2024-01-27T14:26:04;8.00;99.90
64939;DHT22;51453;47.738;7.420;2024-01-27T14:28:33;8.00;99.90
64939;DHT22;51453;47.738;7.420;2024-01-27T14:31:00;7.90;99.90
64939;DHT22;51453;47.738;7.420;2024-01-27T14:33:26;7.90;99.90
64939;DHT22;51453;47.738;7.420;2024-01-27T14:35:52;7.80;99.90
64939;DHT22;51453;47.738;7.420;2024-01-27T14:38:18;7.70;99.90
64939;DHT22;51453;47.738;7.420;2024-01-27T14:40:46;7.70;99.90
64939;DHT22;51453;47.738;7.420;2024-01-27T14:43:12;7.80;99.90
64939;DHT22;51453;47.738;7.420;2024-01-27T14:45:39;7.90;99.90
64939;DHT22;51453;47.738;7.420;2024-01-27T14:48:06;7.90;99.90
64939;DHT22;51453;47.738;7.420;2024-01-27T14:50:33;8.00;99.90
64939;DHT22;51453;47.738;7.420;2024-01-27T14:53:00;7.80;99.90
64939;DHT22;51453;47.738;7.420;2024-01-27T14:55:28;7.80;99.90
64939;DHT22;51453;47.738;7.420;2024-01-27T14:57:57;7.80;99.90
64939;DHT22;51453;47.738;7.420;2024-01-27T15:00:24;7.70;99.90
64939;DHT22;51453;47.738;7.420;2024-01-27T15:02:49;7.70;99.90
64939;DHT22;51453;47.738;7.420;2024-01-27T15:05:17;7.70;99.90
64939;DHT22;51453;47.738;7.420;2024-01-27T15:07:46;7.70;99.90
64939;DHT22;51453;47.738;7.420;2024-01-27T15:10:24;7.90;99.90
64939;DHT22;51453;47.738;7.420;2024-01-27T15:12:53;7.70;99.90
64939;DHT22;51453;47.738;7.420;2024-01-27T15:15:28;7.60;99.90
64939;DHT22;51453;47.738;7.420;2024-01-27T15:17:58;7.60;99.90
64939;DHT22;51453;47.738;7.420;2024-01-27T15:20:31;7.50;99.90
64939;DHT22;51453;47.738;7.420;2024-01-27T15:23:02;7.60;99.90
64939;DHT22;51453;47.738;7.420;2024-01-27T15:26:10;7.40;99.90
64939;DHT22;51453;47.738;7.420;2024-01-27T15:28:56;7.40;99.90
64939;DHT22;51453;47.738;7.420;2024-01-27T15:31:23;7.60;99.90
64939;DHT22;51453;47.738;7.420;2024-01-27T15:33:51;7.60;99.90
64939;DHT22;51453;47.738;7.420;2024-01-27T15:36:19;7.60;99.90
64939;DHT22;51453;47.738;7.420;2024-01-27T15:38:47;7.50;99.90
64939;DHT22;51453;47.738;7.420;2024-01-27T15:41:19;7.50;99.90
64939;DHT22;51453;47.738;7.420;2024-01-27T15:43:54;7.50;99.90
64939;DHT22;51453;47.738;7.420;2024-01-27T15:48:57;7.30;99.90
64939;DHT22;51453;47.738;7.420;2024-01-27T15:51:23;7.20;99.90
64939;DHT22;51453;47.738;7.420;2024-01-27T15:53:48;7.10;99.90
64939;DHT22;51453;47.738;7.420;2024-01-27T15:56:14;7.10;99.90
64939;DHT22;51453;47.738;7.420;2024-01-27T15:58:40;7.10;99.90
64939;DHT22;51453;47.738;7.420;2024-01-27T16:01:05;6.90;99.90
64939;DHT22;51453;47.738;7.420;2024-01-27T16:03:31;6.80;99.90
64939;DHT22;51453;47.738;7.420;2024-01-27T16:05:57;6.70;99.90
64939;DHT22;51453;47.738;7.420;2024-01-27T16:08:22;6.60;99.90